METARの読み方について

平成29年01月11日現在、WEBページ更新中



[METAR]の読み方(例)-

1.


RJSS 250816Z 22010KT 4000 TSRA BR FEW005 SCT030CB SCT050 BKN080-

24/22 Q1009 -

RMK 1ST005 3CB030 4CU050 7AC080 A2980 HVY TS OHD MOV NE P/RR-

仙台空港-

25日08:16時UTC(+9時間=17:16JST)時点-

方位220度から 風速10ノット 卓越視程4000m-

天候 雷雨 もや-

高度500フィート(150m)にフュー、僅かな雲-

3000フィート(900m)にスキャッター、全天の4割程度の積乱雲-

5000フィート(1500m)にスキャッター、全天の4割程度の雲-

8000フィート(2400m)にブロークン、全天の8割程度の雲 -

気温24度、露点22度、気圧1009Pa-

特記事項-

 全天の1/8を覆う層雲(ストラータス) 雲底高度500フィート-

 全天の3/8を覆う積乱雲(キムロニムボス) 雲底高度3000フィート-

 全天の4/8を覆う積雲(キムラス) 雲底高度5000フィート-

 全天の7/8を覆う高層雲(アルトキムラス) 雲底高度8000フィート-

 気圧29.80inHg-

 強い雷雨 直上から北東へ移動中-

 気圧が観測時点までの30分以内に1hPa超過の上昇あり

2.


RJAA 250800Z 20012KT 9999 FEW030 31/21 Q1007 WS RWY16R NOSIG-


成田空港-

25日08:00時UTC(+9時間=17:00JST)時点-

方位200度から 風速12ノットの風 卓越視程10km以上-

高度3000フィートにフュー、僅かな雲 -

気温31度、露点21度、気圧1007Pa-

ウインドシア、滑走路16Rにて発生中-

※天候に変化無し

3.


RJTA 062022Z 00000KT 9999 SCT010 BKN015 25/23 Q1010-

RMK 4ST010 5CU015 A2985

厚木基地-

06日20:22時UTC(+9時間=翌5:22JST)時点-

無風 卓越視程10km以上-

1000フィート(300m)にスキャッター、全天の4割程度の雲-

1500フィート(450m)にブロークン、全天の8割程度の雲-

気温25度、露点23度、気圧1010Pa-

特記事項-

 全天の4/8を覆う層雲(ストラータス) 雲底高度1000フィート-

 全天の5/8を覆う積雲(キムラス) 雲底高度1500フィート-

 気圧29.85inHg

4.


JAA 062230Z VRB01KT 3000 BR FEW001 BKN003 BKN010 23/22 Q1011-

BECMG 6000 NSW

成田空港-

06日22:30時UTC(+9時間=翌7:30JST)時点-

風向不定 風速1ノット 卓越視程3000m-

天候 もや-

高度100フィート(30m)にフュー、僅かな雲-

300フィート(90m)にブロークン、全天の8割程度の雲-

1000フィート(300m)にブロークン、全天の8割程度の雲-

気温23度、露点22度、気圧1011Pa-

のち、視程6000m、運用上障害となる天候無し

5.


ROAH 062247Z 33051G69KT 1500 R36/1600U -SHRA BR FEW007 SCT015-

BKN020CB 27/26 Q0961 RMK 2ST007 3CU015 5CB020 A2839 CB OHD MOV S-

那覇空港-

06日22:47時UTC(+9時間=翌07:47JST)時点-

方位330度から 風速51ノット、最大風速69ノットの風 卓越視程1500m-

36番滑走路上にて視程1600m ※視界回復傾向-

天候 弱いしゅう雨(局地的雨) もや-

高度700フィート(210m)にフュー、僅かな雲-

1500フィート(450m)にスキャッター、全天の4割程度の雲-

2000フィート(600m)にブロークン、全天の8割程度の 積乱雲-

気温27度、露点26度、気圧961Pa-

特記事項-

 全天の2/8を覆う層雲(ストラータス) 雲底高度700フィート-

 全天の3/8を覆う積雲(キムラス) 雲底高度1500フィート-

 全天の5/8を覆う積乱雲(キムロニムボス) 雲底高度2000フィート-

 気圧28.39inHg-

 積乱雲(台風)、直上から南方向へ移動中-

6.
RJAA 021330Z 18006KT CAVOK 25/23 Q1011 NOSIG


成田空港-

02日13:30時UTC(+9時間=22:30JST)時点-

方位180度から 風速6ノットの風 ※快晴 視界良好-

気温25度、露点23度、気圧1011Pa-

天候に変化無し-

7.
RJTT 021330Z 20017KT CAVOK 27/22 Q1010 RMK A2985 -


羽田空港-

02日13:30時UTC(+9時間=22:30JST)時点-

方位200度から 17ノットの風 ※快晴 視界良好-

気温27度、露点22度、気圧1010Pa-

特記事項 気圧29.85inHg-

8.


RJSS 021211Z VRB01KT 0800 R27/0900VP1800U FG FEW001 BKN002 BKN004-

21/20 Q1010 RMK 1ST001 5ST002 7ST004 A2985

仙台空港-

02日12:11時UTC(+9時間=21:11JST)時点-

風向不定 風速1ノット 卓越視程800m-

27番滑走路上にて視程900mから1800m以上の間で変動 ※視界回復傾向-

天候 霧-

高度100フィート(30m)にフュー、僅かな雲-

200フィート(60m)にブロークン、全天の8割程度の雲-

400フィート(120m)にブロークン、全天の8割程度の雲-

気温21度、露点20度、気圧1010Pa-

特記事項-

 全天の1/8を覆う層雲(ストラータス) 雲底高度100フィート-

 全天の5/8を覆う層雲(ストラータス) 雲底高度200フィート-

 全天の7/8を覆う層雲(ストラータス) 雲底高度400フィート-

 気圧29.85inHg-

9.
RJTT 031200Z 19016KT 8000 -SHRA FEW015 SCT035 BKN080 22/19 Q1009-


羽田空港-

03日12:00時UTC(+9時間=21時JST)時点-

方位190度から 風速16ノットの風-

視程8000m ※わずかに しゅう雨(一時的に) 雨-

高度1500フィートにフュー、僅かな雲-

3500フィートにスキャッター、全天の4割程度の雲-

8000フィートにブロークン、全天の8割程度の雲-

気温22度、露点19度、気圧1009hPa-

10


RJSF 082200Z VRB03KT 0600 R01/P2000N FG FEW003 SCT005 BKN008 16/16 Q1016-

福島空港-

08日22:00時UTC(+9時間=7時JST)時点-

風向不定 風速3ノットの風-

視程600m 01番滑走路の視程2000m以上 状況変化無し 霧-

高度300フィートにフュー、僅かな雲-

500フィートにスキャッター、全天の4割程度の雲-

800フィートにブロークン、全天の8割程度の雲-

気温16度、露点16度、気圧1016hPa-

[TAF](S-TAF)の読み方(例)-

1.


RJSS 212100Z 212106 13008KT 9999 FEW040 -

TEMPO 2122 0100 FG VV001 TEMPO 2223 3000 BR FEW005 BKN006-

仙台空港-

21日21:00時UTC(+9時間=翌6時JST)時点情報-

21日UTC21時から翌06時まで(JST:+9時間=6時から15時まで) の予報-

方位130度から8ノットの風-

※視程10000m以上-

高度4000フィートに僅かな雲-

UTC21時から22時(翌6時から7時)にかけて時々視程100mの霧-

鉛直視程100フィート-

UTC22時から23時(翌7時から8時)にかけて時々視程3000mのもや-

高度500フィートに僅かな雲-

高度600フィートにブロークン、全天の8割程度の雲-

2.
ROAH 102100Z 102106 18010KT 9999 SCT015 FEW020TCU SCT200-


那覇空港-

10日21:00時UTC(+9時間=翌6時JST)時点情報-

10日UTC21時から翌06時まで(JST:+9時間=6時から15時まで) の予報-

方位180度から10ノットの風-

※視程10000m以上-

高度1500フィートにスキャッター、全天の4割程度の雲-

2000フィートに僅かな塔状積雲-

20000フィートにスキャッター、全天の4割程度の雲-






Copyright 2000-2015 Media United-Energy Co.,Ltd All Right Reserved
These contents are brought to you by Media logistics Co.,Ltd.